Time;durP1;ratioP1;P1;durP2;ratioP2;P2;SDS_P1;SDS_P2;PMS_P1;PMS_P2;Temp;Humidity;BMP_temperature;BMP_pressure;BME280_temperature;BME280_humidity;BME280_pressure;Samples;Min_cycle;Max_cycle;Signal;HPM_P1;HPM_P2
2023/03/11 00:00:51;;;;;;;22.77;2.95;;;;;;;1.49;73.21;94893.31;5051208;28;20049;-73
2023/03/11 00:03:21;;;;;;;18.30;2.67;;;;;;;1.49;70.40;94897.88;5071912;28;20044;-73
2023/03/11 00:05:48;;;;;;;30.40;3.72;;;;;;;1.48;70.90;94890.94;5071266;28;20048;-73
2023/03/11 00:08:17;;;;;;;16.35;2.35;;;;;;;1.39;70.54;94890.00;5035677;28;20527;-73
2023/03/11 00:10:46;;;;;;;16.63;2.42;;;;;;;1.30;70.06;94911.34;5032180;28;20041;-72
2023/03/11 00:13:15;;;;;;;24.52;3.05;;;;;;;1.29;69.95;94910.56;5031747;28;20049;-72
2023/03/11 00:15:43;;;;;;;11.18;1.90;;;;;;;1.19;70.53;94900.00;5050545;28;20080;-73
2023/03/11 00:18:09;;;;;;;20.90;2.75;;;;;;;1.14;70.75;94896.59;5048577;28;20049;-72
2023/03/11 00:20:39;;;;;;;23.80;2.78;;;;;;;1.24;69.22;94891.88;5032413;28;20045;-72
2023/03/11 00:23:08;;;;;;;25.77;3.35;;;;;;;1.31;67.20;94899.56;5031736;28;20057;-73
2023/03/11 00:25:37;;;;;;;19.30;2.75;;;;;;;1.16;67.73;94902.47;5032156;28;20045;-72
2023/03/11 00:28:03;;;;;;;20.65;2.38;;;;;;;1.35;65.73;94886.31;5033332;28;20073;-73
2023/03/11 00:30:30;;;;;;;23.90;2.58;;;;;;;1.25;66.78;94898.84;5059225;28;20059;-72
2023/03/11 00:32:58;;;;;;;19.52;2.78;;;;;;;1.20;66.91;94906.16;5071841;28;20407;-72
2023/03/11 00:35:27;;;;;;;14.93;2.20;;;;;;;1.32;67.08;94895.78;5071747;28;20131;-73
2023/03/11 00:37:57;;;;;;;18.27;2.53;;;;;;;1.33;66.29;94910.75;5070186;28;20502;-72
2023/03/11 00:40:26;;;;;;;17.38;2.60;;;;;;;1.28;66.62;94914.31;5051686;28;20052;-72
2023/03/11 00:42:52;;;;;;;16.63;2.47;;;;;;;1.30;66.42;94930.94;5051740;28;20044;-73
2023/03/11 00:45:19;;;;;;;9.57;1.95;;;;;;;1.19;67.58;94948.25;5046650;28;20045;-73
2023/03/11 00:47:47;;;;;;;14.77;2.35;;;;;;;1.19;66.42;94937.53;5051384;28;20428;-72
2023/03/11 00:50:18;;;;;;;13.10;2.10;;;;;;;1.21;67.89;94954.13;5032203;28;20053;-73
2023/03/11 00:52:45;;;;;;;11.30;1.98;;;;;;;1.09;67.92;94937.69;5031405;28;20049;-73
2023/03/11 00:55:15;;;;;;;20.55;3.13;;;;;;;1.16;66.83;94945.38;5030630;28;20292;-73
2023/03/11 00:57:42;;;;;;;12.85;2.10;;;;;;;1.04;66.20;94946.63;5031538;28;20053;-72
2023/03/11 01:00:13;;;;;;;7.57;1.58;;;;;;;1.10;65.69;94957.25;5052879;28;20040;-73
2023/03/11 01:02:39;;;;;;;13.25;2.20;;;;;;;1.02;65.92;94964.88;5071097;28;20143;-73
2023/03/11 01:05:06;;;;;;;8.85;1.70;;;;;;;1.02;65.67;94969.44;5071166;28;20048;-73
2023/03/11 01:07:33;;;;;;;11.52;2.15;;;;;;;1.06;64.96;94956.25;5069795;28;20538;-72
2023/03/11 01:10:00;;;;;;;15.52;2.58;;;;;;;1.12;63.67;94953.19;5051352;28;20049;-73
2023/03/11 01:12:27;;;;;;;12.98;2.20;;;;;;;1.01;64.39;94957.94;5050961;28;20404;-73
2023/03/11 01:14:54;;;;;;;12.60;2.22;;;;;;;1.04;63.86;94961.91;5051301;28;20079;-72
2023/03/11 01:17:21;;;;;;;12.18;2.20;;;;;;;0.99;64.66;94948.56;5037867;28;20045;-73
2023/03/11 01:19:48;;;;;;;15.45;2.65;;;;;;;0.94;63.74;94956.69;5031274;28;20045;-72
2023/03/11 01:22:14;;;;;;;12.55;2.17;;;;;;;0.99;63.12;94943.22;5030529;28;20100;-73
2023/03/11 01:24:42;;;;;;;15.48;2.72;;;;;;;1.00;63.30;94966.28;5031010;28;20073;-72
2023/03/11 01:27:08;;;;;;;12.75;2.30;;;;;;;0.93;62.79;94963.16;5030433;28;20056;-72
2023/03/11 01:29:36;;;;;;;11.05;1.98;;;;;;;0.88;63.12;94963.22;5030969;28;20060;-72
2023/03/11 01:32:02;;;;;;;11.13;2.10;;;;;;;0.82;63.37;94969.75;5069797;28;20048;-74
2023/03/11 01:34:29;;;;;;;15.95;2.53;;;;;;;0.80;63.17;94977.28;5070687;28;20458;-73
2023/03/11 01:36:55;;;;;;;11.57;2.30;;;;;;;0.77;63.77;94974.06;5070484;28;20411;-72
2023/03/11 01:39:22;;;;;;;9.85;1.95;;;;;;;0.80;62.94;94985.31;5041627;28;20064;-72
2023/03/11 01:41:48;;;;;;;12.45;2.20;;;;;;;0.77;64.09;94992.84;5048187;28;20060;-72
2023/03/11 01:44:15;;;;;;;10.77;2.05;;;;;;;0.76;63.80;94993.94;5050089;28;20048;-72
2023/03/11 01:47:14;;;;;;;12.80;2.47;;;;;;;0.72;64.64;94994.78;5045180;28;20053;-72
2023/03/11 01:49:42;;;;;;;11.60;2.05;;;;;;;0.72;64.00;95008.97;5048610;28;20041;-73
2023/03/11 01:52:09;;;;;;;13.15;2.70;;;;;;;0.72;63.91;95000.94;5049790;28;20076;-72
2023/03/11 01:54:39;;;;;;;13.50;2.10;;;;;;;0.68;63.78;95007.16;5050389;28;20052;-72
2023/03/11 01:57:09;;;;;;;14.32;2.40;;;;;;;0.62;64.91;94997.59;5046439;28;20083;-73
2023/03/11 01:59:40;;;;;;;12.73;2.33;;;;;;;0.60;64.29;95000.56;5041803;28;20491;-72
2023/03/11 02:02:11;;;;;;;12.90;2.65;;;;;;;0.58;64.99;94994.72;5048989;28;20041;-72
2023/03/11 02:04:40;;;;;;;8.65;1.98;;;;;;;0.53;64.86;95005.50;5050307;28;20045;-73
2023/03/11 02:07:10;;;;;;;14.32;2.83;;;;;;;0.55;65.63;94997.97;5048781;28;20064;-72
2023/03/11 02:09:36;;;;;;;11.88;2.13;;;;;;;0.52;64.78;95003.88;5048509;28;20052;-72
2023/03/11 02:12:05;;;;;;;10.32;1.90;;;;;;;0.55;64.85;95019.38;5049729;28;20049;-73
2023/03/11 02:14:32;;;;;;;11.52;2.22;;;;;;;0.52;64.90;95006.56;5049992;28;20041;-73
2023/03/11 02:16:59;;;;;;;12.95;2.50;;;;;;;0.46;64.60;95018.44;5044892;28;20042;-72
2023/03/11 02:19:33;;;;;;;7.40;1.70;;;;;;;0.48;64.77;95016.28;5029633;28;20076;-72
2023/03/11 02:22:00;;;;;;;12.80;2.40;;;;;;;0.49;65.08;95010.63;5030152;28;20045;-72
2023/03/11 02:24:37;;;;;;;16.77;3.30;;;;;;;0.51;64.60;94995.06;5029970;28;20049;-72
2023/03/11 02:27:08;;;;;;;5.57;1.55;;;;;;;0.42;65.17;95009.38;5030226;28;20045;-72
2023/03/11 02:29:34;;;;;;;13.30;2.25;;;;;;;0.41;65.16;95007.78;5022119;28;20061;-72
2023/03/11 02:32:04;;;;;;;14.13;2.40;;;;;;;0.37;65.70;95009.44;5068760;28;20040;-72
2023/03/11 02:34:33;;;;;;;11.88;2.30;;;;;;;0.34;64.28;95008.13;5069444;28;20136;-72
2023/03/11 02:37:00;;;;;;;15.32;2.75;;;;;;;0.35;64.36;95014.28;5060060;28;20124;-72
2023/03/11 02:39:31;;;;;;;13.02;2.38;;;;;;;0.37;63.69;95020.16;5049880;28;20053;-74
2023/03/11 02:41:59;;;;;;;14.70;2.60;;;;;;;0.36;63.99;95013.97;5049494;28;20415;-72
2023/03/11 02:44:27;;;;;;;16.35;2.53;;;;;;;0.30;64.27;95008.97;5049285;28;20053;-73
2023/03/11 02:46:53;;;;;;;8.48;1.85;;;;;;;0.32;63.10;95001.47;5045740;28;20730;-72
2023/03/11 02:49:20;;;;;;;11.50;2.30;;;;;;;0.32;62.93;95004.16;5029295;28;20531;-73
2023/03/11 02:51:47;;;;;;;11.98;2.17;;;;;;;0.34;62.95;95008.13;5029803;28;20045;-73
2023/03/11 02:54:14;;;;;;;9.68;1.95;;;;;;;0.30;63.74;95011.66;5029436;28;20100;-72
2023/03/11 02:56:40;;;;;;;11.27;2.15;;;;;;;0.27;64.05;95012.25;5034507;28;20040;-72
2023/03/11 02:59:06;;;;;;;15.25;2.95;;;;;;;0.25;63.49;95021.34;5049058;28;20053;-73
2023/03/11 03:01:34;;;;;;;10.05;2.10;;;;;;;0.23;63.66;95012.81;5066118;28;20055;-72
2023/03/11 03:04:01;;;;;;;7.65;1.63;;;;;;;0.30;63.77;95022.38;5073552;28;20059;-72
2023/03/11 03:06:28;;;;;;;12.20;2.38;;;;;;;0.23;64.11;95023.50;5069134;28;20048;-72
2023/03/11 03:08:54;;;;;;;10.85;2.28;;;;;;;0.18;63.02;95020.09;5053625;28;20081;-72
2023/03/11 03:11:21;;;;;;;9.40;2.10;;;;;;;0.18;63.49;95020.91;5052802;28;20049;-72
2023/03/11 03:13:47;;;;;;;12.50;2.38;;;;;;;0.14;64.61;95029.78;5053538;28;20044;-72
2023/03/11 03:16:14;;;;;;;11.23;2.13;;;;;;;0.09;63.34;95035.97;5052110;28;20052;-72
2023/03/11 03:18:42;;;;;;;9.60;2.10;;;;;;;0.15;61.97;95029.47;5053365;28;20045;-72
2023/03/11 03:21:08;;;;;;;10.15;2.15;;;;;;;0.15;62.31;95042.06;5052750;28;20400;-72
2023/03/11 03:23:36;;;;;;;8.52;1.77;;;;;;;0.16;62.12;95055.19;5053234;28;20045;-72
2023/03/11 03:26:04;;;;;;;8.68;1.92;;;;;;;0.16;61.49;95060.53;5053130;28;20061;-73
2023/03/11 03:28:30;;;;;;;10.98;2.30;;;;;;;0.16;61.57;95055.19;5033518;28;20053;-72
2023/03/11 03:31:03;;;;;;;12.10;2.55;;;;;;;0.18;61.86;95069.06;5054320;28;20044;-72
2023/03/11 03:33:30;;;;;;;;;;;;;;;0.22;61.78;95055.94;5050978;28;20037;-72
2023/03/11 03:35:58;;;;;;;15.88;3.10;;;;;;;0.15;61.67;95061.59;5052782;28;19928;-72
2023/03/11 03:38:24;;;;;;;8.27;1.92;;;;;;;0.11;62.17;95063.28;5052319;28;20049;-73
2023/03/11 03:40:51;;;;;;;5.63;1.52;;;;;;;0.09;62.74;95067.28;5052939;28;20638;-72
2023/03/11 03:43:17;;;;;;;12.73;2.70;;;;;;;-0.07;63.90;95066.66;5034619;28;20509;-73
2023/03/11 03:45:44;;;;;;;14.15;2.60;;;;;;;-0.08;63.36;95070.41;5032687;28;20049;-72
2023/03/11 03:48:10;;;;;;;6.72;1.33;;;;;;;-0.14;64.04;95076.88;5033677;28;20459;-73
2023/03/11 03:50:39;;;;;;;14.93;2.80;;;;;;;-0.12;63.98;95082.75;5052796;28;20045;-72
2023/03/11 03:53:06;;;;;;;12.57;2.38;;;;;;;-0.18;64.80;95086.56;5036312;28;20045;-72
2023/03/11 03:55:33;;;;;;;10.25;1.90;;;;;;;-0.25;65.04;95083.41;5032549;28;20475;-73
2023/03/11 03:57:59;;;;;;;14.50;2.53;;;;;;;-0.27;65.24;95084.47;5032401;28;20053;-73
2023/03/11 04:00:26;;;;;;;13.45;2.38;;;;;;;-0.29;66.04;95086.63;5044773;28;20052;-73
2023/03/11 04:02:52;;;;;;;12.02;2.25;;;;;;;-0.37;66.33;95089.91;5051879;28;20068;-72
2023/03/11 04:05:19;;;;;;;16.25;2.63;;;;;;;-0.40;67.12;95089.69;5052095;28;20059;-73
2023/03/11 04:07:45;;;;;;;14.45;2.47;;;;;;;-0.46;67.33;95083.56;5033025;28;20049;-72
2023/03/11 04:10:14;;;;;;;12.27;1.92;;;;;;;-0.44;67.18;95080.59;5031996;28;20115;-73
2023/03/11 04:12:41;;;;;;;16.45;2.50;;;;;;;-0.44;67.44;95080.59;5032334;28;20042;-72
2023/03/11 04:15:08;;;;;;;15.30;2.50;;;;;;;-0.47;68.25;95084.66;5031491;28;20049;-74
2023/03/11 04:17:34;;;;;;;12.60;2.20;;;;;;;-0.47;67.86;95087.31;5032110;28;20045;-73
2023/03/11 04:20:01;;;;;;;11.65;2.17;;;;;;;-0.45;67.51;95093.19;5032441;28;20045;-72
2023/03/11 04:22:28;;;;;;;15.48;2.60;;;;;;;-0.45;67.77;95103.09;5031869;28;20126;-72
2023/03/11 04:24:54;;;;;;;7.38;1.63;;;;;;;-0.45;67.89;95095.06;5032300;28;20052;-73
2023/03/11 04:27:22;;;;;;;14.20;2.47;;;;;;;-0.49;68.10;95092.13;5031473;28;20500;-72
2023/03/11 04:29:48;;;;;;;9.45;1.88;;;;;;;-0.43;67.63;95096.38;5034605;28;20123;-73
2023/03/11 04:32:15;;;;;;;11.23;2.13;;;;;;;-0.38;67.63;95093.66;5053759;28;20394;-73
2023/03/11 04:34:41;;;;;;;14.43;2.38;;;;;;;-0.30;67.47;95089.59;5051915;28;20049;-73
2023/03/11 04:37:08;;;;;;;11.93;2.20;;;;;;;-0.25;66.17;95080.75;5051337;28;20049;-72
2023/03/11 04:39:34;;;;;;;15.43;2.83;;;;;;;-0.16;66.45;95079.03;5035424;28;20054;-73
2023/03/11 04:42:01;;;;;;;14.80;2.58;;;;;;;-0.16;66.86;95085.19;5031806;28;20045;-72
2023/03/11 04:44:28;;;;;;;7.88;1.50;;;;;;;-0.15;67.49;95086.00;5031433;28;20049;-73
2023/03/11 04:46:55;;;;;;;11.85;2.10;;;;;;;-0.13;67.22;95091.84;5031696;28;20045;-73
2023/03/11 04:49:21;;;;;;;10.65;2.13;;;;;;;-0.14;67.82;95098.28;5031161;28;20057;-73
2023/03/11 04:51:48;;;;;;;15.55;2.40;;;;;;;-0.10;67.98;95105.47;5039325;28;20052;-73
2023/03/11 04:54:14;;;;;;;11.05;2.13;;;;;;;-0.19;68.78;95095.66;5051109;28;20060;-72
2023/03/11 04:56:41;;;;;;;9.48;1.90;;;;;;;-0.17;69.93;95102.31;5051453;28;20049;-73
2023/03/11 04:59:07;;;;;;;15.82;3.00;;;;;;;-0.19;70.09;95095.66;5051181;28;20040;-73
2023/03/11 05:01:35;;;;;;;11.00;2.30;;;;;;;-0.21;70.26;95105.81;5060314;28;20511;-73
2023/03/11 05:04:01;;;;;;;13.25;2.60;;;;;;;-0.21;70.46;95120.00;5050629;28;20048;-74
2023/03/11 05:06:28;;;;;;;12.75;2.47;;;;;;;-0.29;71.50;95129.44;5042641;28;20051;-73
2023/03/11 05:08:54;;;;;;;11.30;2.45;;;;;;;-0.36;70.91;95130.84;5031316;28;20053;-73
2023/03/11 05:11:21;;;;;;;13.45;2.53;;;;;;;-0.31;71.10;95136.94;5034126;28;20037;-73
2023/03/11 05:13:47;;;;;;;15.13;2.83;;;;;;;-0.32;70.87;95135.31;5035545;28;20103;-72
2023/03/11 05:16:14;;;;;;;12.23;2.70;;;;;;;-0.30;71.12;95133.19;5030722;28;20053;-72
2023/03/11 05:18:41;;;;;;;17.58;3.75;;;;;;;-0.40;70.85;95143.97;5031007;28;20041;-73
2023/03/11 05:21:08;;;;;;;15.88;2.67;;;;;;;-0.34;70.54;95148.19;5037443;28;20052;-72
2023/03/11 05:23:35;;;;;;;9.50;2.03;;;;;;;-0.30;70.92;95138.53;5050906;28;20532;-73
2023/03/11 05:26:01;;;;;;;11.88;2.33;;;;;;;-0.36;70.98;95142.34;5049536;28;20102;-73
2023/03/11 05:28:28;;;;;;;16.45;2.95;;;;;;;-0.34;70.62;95158.09;5050972;28;20056;-73
2023/03/11 05:30:54;;;;;;;16.13;3.15;;;;;;;-0.39;71.46;95153.59;5053210;28;20046;-73
2023/03/11 05:33:21;;;;;;;11.63;2.53;;;;;;;-0.43;71.03;95154.41;5049410;28;20052;-73
2023/03/11 05:35:50;;;;;;;27.40;4.35;;;;;;;-0.44;71.18;95153.63;5030462;28;20389;-73
2023/03/11 05:38:17;;;;;;;12.40;2.70;;;;;;;-0.40;71.24;95162.69;5030485;28;20049;-72
2023/03/11 05:40:43;;;;;;;12.77;3.00;;;;;;;-0.39;71.53;95166.94;5030644;28;20057;-73
2023/03/11 05:43:10;;;;;;;13.75;3.22;;;;;;;-0.35;70.73;95170.69;5030464;28;20041;-74
2023/03/11 05:45:36;;;;;;;10.18;2.28;;;;;;;-0.39;71.67;95177.66;5030610;28;20107;-73
2023/03/11 05:48:03;;;;;;;9.63;2.30;;;;;;;-0.38;71.23;95179.25;5029936;28;20065;-74
2023/03/11 05:50:29;;;;;;;8.88;2.10;;;;;;;-0.41;71.50;95179.03;5043058;28;20045;-73
2023/03/11 05:52:57;;;;;;;12.82;2.45;;;;;;;-0.45;70.32;95189.47;5030779;28;20072;-73
2023/03/11 05:55:23;;;;;;;12.80;2.33;;;;;;;-0.50;70.47;95180.66;5030060;28;20056;-73
2023/03/11 05:57:51;;;;;;;13.35;2.83;;;;;;;-0.42;70.95;95178.19;5030469;28;20049;-73
2023/03/11 06:00:19;;;;;;;8.52;2.08;;;;;;;-0.40;69.65;95186.75;5040483;28;20046;-73
2023/03/11 06:02:45;;;;;;;9.90;2.17;;;;;;;-0.35;70.11;95194.75;5047814;28;20052;-73
2023/03/11 06:05:12;;;;;;;13.18;2.88;;;;;;;-0.33;69.19;95192.59;5049427;28;20048;-73
2023/03/11 06:07:38;;;;;;;11.60;2.42;;;;;;;-0.38;69.21;95187.25;5050027;28;20048;-73
2023/03/11 06:10:07;;;;;;;12.60;2.80;;;;;;;-0.37;68.73;95188.84;5049832;28;20052;-73
2023/03/11 06:12:35;;;;;;;19.48;3.78;;;;;;;-0.45;68.37;95194.81;5049141;28;20049;-73
2023/03/11 06:15:01;;;;;;;15.07;2.85;;;;;;;-0.48;68.35;95198.03;5047038;28;20597;-73
2023/03/11 06:17:27;;;;;;;15.55;2.97;;;;;;;-0.49;69.60;95200.97;5046750;28;20416;-73
2023/03/11 06:19:54;;;;;;;20.08;3.50;;;;;;;-0.46;68.56;95192.41;5046929;28;20056;-73
2023/03/11 06:22:20;;;;;;;9.75;2.20;;;;;;;-0.41;68.64;95203.88;5048267;28;20049;-73
2023/03/11 06:24:47;;;;;;;12.20;2.35;;;;;;;-0.47;67.09;95209.50;5050334;28;20056;-74
2023/03/11 06:27:15;;;;;;;8.77;1.88;;;;;;;-0.46;66.55;95214.63;5049291;28;20041;-74
2023/03/11 06:29:41;;;;;;;10.98;1.83;;;;;;;-0.45;66.51;95226.91;5031417;28;20045;-73
2023/03/11 06:32:08;;;;;;;9.07;2.03;;;;;;;-0.38;66.43;95226.59;5048976;28;20053;-73
2023/03/11 06:34:36;;;;;;;15.73;3.25;;;;;;;-0.42;67.04;95229.00;5049688;28;20052;-73
2023/03/11 06:37:02;;;;;;;10.55;1.92;;;;;;;-0.41;66.84;95222.59;5048740;28;20046;-75
2023/03/11 06:39:29;;;;;;;12.90;2.55;;;;;;;-0.44;67.95;95223.16;5049949;28;20416;-73
2023/03/11 06:41:55;;;;;;;9.07;1.75;;;;;;;-0.46;67.00;95225.31;5047905;28;20041;-73
2023/03/11 06:44:23;;;;;;;9.95;2.05;;;;;;;-0.40;68.84;95223.41;5049134;28;20059;-73
2023/03/11 06:46:49;;;;;;;9.48;2.00;;;;;;;-0.37;67.48;95239.69;5049563;28;20052;-73
2023/03/11 06:49:16;;;;;;;16.23;2.92;;;;;;;-0.37;66.92;95250.38;5049353;28;20049;-73
2023/03/11 06:51:42;;;;;;;13.15;2.08;;;;;;;-0.38;66.55;95248.78;5037640;28;20046;-74
2023/03/11 06:54:10;;;;;;;10.20;2.20;;;;;;;-0.31;67.17;95257.31;5044245;28;20064;-73
2023/03/11 06:56:36;;;;;;;11.55;2.08;;;;;;;-0.35;66.33;95258.94;5049429;28;20052;-73
2023/03/11 06:59:02;;;;;;;13.50;2.63;;;;;;;-0.25;66.05;95259.97;5049198;28;20561;-73
2023/03/11 07:01:30;;;;;;;9.88;1.77;;;;;;;-0.22;66.54;95267.44;5050094;28;20052;-73
2023/03/11 07:03:57;;;;;;;13.27;2.20;;;;;;;-0.30;66.13;95266.94;5035265;28;20042;-73
2023/03/11 07:06:25;;;;;;;21.08;3.28;;;;;;;-0.22;65.25;95278.13;5028299;28;20060;-73
2023/03/11 07:08:52;;;;;;;8.52;1.60;;;;;;;-0.18;65.81;95284.53;5021603;28;20057;-73
2023/03/11 07:11:21;;;;;;;10.75;2.00;;;;;;;-0.07;66.35;95281.53;5036908;28;20045;-73
2023/03/11 07:13:47;;;;;;;9.32;1.80;;;;;;;0.06;64.98;95285.47;5049549;28;20048;-73
2023/03/11 07:16:16;;;;;;;11.32;2.15;;;;;;;0.14;64.64;95292.91;5048773;28;20048;-73
2023/03/11 07:18:45;;;;;;;10.95;2.13;;;;;;;0.13;64.72;95295.88;5049567;28;20045;-74
2023/03/11 07:21:14;;;;;;;11.10;2.40;;;;;;;0.42;64.25;95303.97;5048663;28;20048;-73
2023/03/11 07:23:41;;;;;;;8.48;1.90;;;;;;;0.64;63.20;95306.22;5049386;28;20055;-73
2023/03/11 07:26:09;;;;;;;11.95;2.13;;;;;;;0.44;63.78;95316.00;5048906;28;20045;-73
2023/03/11 07:28:36;;;;;;;9.18;2.00;;;;;;;0.25;64.15;95315.84;5049475;28;20539;-74
2023/03/11 07:31:07;;;;;;;9.98;2.30;;;;;;;0.34;63.56;95328.66;5047774;28;20050;-74
2023/03/11 07:33:37;;;;;;;8.85;1.92;;;;;;;0.26;63.53;95324.69;5041079;28;20547;-75
2023/03/11 07:36:10;;;;;;;5.45;1.30;;;;;;;0.27;64.16;95334.34;5048833;28;20176;-75
2023/03/11 07:38:37;;;;;;;14.18;2.53;;;;;;;0.16;64.33;95343.50;5049163;28;20052;-76
2023/03/11 07:41:04;;;;;;;11.65;2.38;;;;;;;0.14;65.23;95351.78;5048728;28;20540;-76
2023/03/11 07:43:31;;;;;;;9.18;2.05;;;;;;;0.30;64.00;95351.72;5039592;28;20049;-77
2023/03/11 07:46:06;;;;;;;15.50;3.20;;;;;;;0.17;63.41;95345.91;5027956;28;20068;-76
2023/03/11 07:48:33;;;;;;;8.27;2.25;;;;;;;0.02;64.44;95347.84;5029791;28;20041;-74
2023/03/11 07:51:04;;;;;;;9.60;2.58;;;;;;;0.11;64.47;95349.69;5047794;28;20790;-79
2023/03/11 07:53:32;;;;;;;9.93;2.60;;;;;;;0.00;64.18;95350.81;5053447;28;20052;-76
2023/03/11 07:55:59;;;;;;;14.10;3.10;;;;;;;-0.01;63.52;95349.19;5069524;28;20110;-74
2023/03/11 07:58:26;;;;;;;10.38;3.05;;;;;;;0.07;65.39;95351.31;5064229;28;20052;-76
2023/03/11 08:00:53;;;;;;;7.32;1.90;;;;;;;0.42;64.56;95341.47;5049765;28;20041;-75
2023/03/11 08:03:20;;;;;;;7.63;2.65;;;;;;;1.44;61.16;95340.56;5069079;28;20044;-76
2023/03/11 08:05:46;;;;;;;9.88;3.20;;;;;;;2.45;57.09;95345.75;5069509;28;20427;-77
2023/03/11 08:08:13;;;;;;;10.48;2.72;;;;;;;2.37;57.09;95341.03;5069109;28;20040;-75
2023/03/11 08:10:40;;;;;;;8.00;2.15;;;;;;;1.73;57.59;95348.59;5064850;28;20056;-76
2023/03/11 08:13:07;;;;;;;9.15;2.88;;;;;;;0.95;59.46;95360.34;5048340;28;20056;-75
2023/03/11 08:15:33;;;;;;;11.07;2.60;;;;;;;0.77;60.62;95359.94;5049603;28;20053;-75
2023/03/11 08:18:00;;;;;;;8.00;2.08;;;;;;;0.88;60.45;95359.88;5038288;28;20037;-75
2023/03/11 08:20:26;;;;;;;9.55;2.17;;;;;;;2.29;58.04;95367.44;5041738;28;20049;-79
2023/03/11 08:22:53;;;;;;;7.18;2.25;;;;;;;3.26;54.98;95363.28;5031821;28;20041;-78
2023/03/11 08:25:19;;;;;;;8.63;2.28;;;;;;;4.40;53.56;95367.03;5034944;28;20047;-76
2023/03/11 08:27:48;;;;;;;4.20;1.55;;;;;;;5.22;50.79;95365.94;5033066;28;20049;-77
2023/03/11 08:30:14;;;;;;;8.38;2.88;;;;;;;5.25;48.01;95367.22;5051089;28;20053;-76
2023/03/11 08:32:41;;;;;;;6.22;2.17;;;;;;;5.00;49.20;95378.63;5050636;28;20041;-74
2023/03/11 08:35:07;;;;;;;6.10;1.88;;;;;;;4.39;48.84;95375.41;5051277;28;20053;-75
2023/03/11 08:37:34;;;;;;;8.15;1.90;;;;;;;3.71;50.52;95363.56;5048350;28;20057;-74
2023/03/11 08:40:00;;;;;;;6.00;1.40;;;;;;;3.58;51.68;95375.13;5044459;28;20052;-78
2023/03/11 08:42:27;;;;;;;9.50;2.13;;;;;;;3.51;50.63;95374.72;5031527;28;20050;-76
2023/03/11 08:44:55;;;;;;;9.27;2.30;;;;;;;4.10;50.64;95378.44;5031609;28;20053;-76
2023/03/11 08:47:21;;;;;;;6.95;2.03;;;;;;;4.57;47.89;95373.66;5030830;28;20505;-75
2023/03/11 08:49:48;;;;;;;9.02;2.13;;;;;;;3.78;49.96;95369.34;5033410;28;20509;-77
2023/03/11 08:52:14;;;;;;;5.57;1.60;;;;;;;4.47;50.18;95380.06;5051099;28;20053;-75
2023/03/11 08:54:41;;;;;;;11.02;2.22;;;;;;;4.24;48.93;95373.84;5051881;28;20276;-75
2023/03/11 08:57:08;;;;;;;6.28;1.67;;;;;;;3.69;50.00;95373.81;5046966;28;20044;-75
2023/03/11 08:59:35;;;;;;;12.43;2.25;;;;;;;3.77;49.36;95378.53;5050060;28;20053;-75
2023/03/11 09:02:03;;;;;;;7.10;1.88;;;;;;;3.65;49.37;95379.03;5070893;28;20044;-76
2023/03/11 09:04:29;;;;;;;9.25;1.83;;;;;;;3.38;50.40;95374.38;5071221;28;20054;-76
2023/03/11 09:06:55;;;;;;;10.77;2.28;;;;;;;3.18;51.85;95382.78;5067900;28;20052;-76
2023/03/11 09:09:22;;;;;;;5.90;1.58;;;;;;;3.23;52.15;95377.31;5030850;28;20061;-76
2023/03/11 09:11:48;;;;;;;11.02;2.30;;;;;;;2.80;51.78;95387.44;5031282;28;20056;-78
2023/03/11 09:14:15;;;;;;;9.50;2.28;;;;;;;3.04;50.82;95381.97;5030689;28;20046;-79
2023/03/11 09:16:41;;;;;;;9.02;2.10;;;;;;;2.32;53.05;95393.75;5030853;28;20041;-78
2023/03/11 09:19:10;;;;;;;9.38;2.38;;;;;;;2.10;53.75;95396.19;5031388;28;20053;-76
2023/03/11 09:21:37;;;;;;;9.40;2.17;;;;;;;1.76;55.29;95402.47;5050902;28;20492;-76
2023/03/11 09:24:05;;;;;;;8.82;2.15;;;;;;;2.14;56.17;95413.34;5050453;28;20044;-75
2023/03/11 09:26:32;;;;;;;9.43;2.10;;;;;;;2.63;54.35;95403.28;5050909;28;20045;-75
2023/03/11 09:28:58;;;;;;;10.98;2.95;;;;;;;3.72;53.38;95405.56;5050682;28;20052;-75
2023/03/11 09:31:25;;;;;;;12.73;3.28;;;;;;;4.02;51.00;95406.06;5059335;28;20049;-75
2023/03/11 09:33:52;;;;;;;5.40;1.58;;;;;;;3.31;51.71;95406.25;5049139;28;20496;-75
2023/03/11 09:36:21;;;;;;;4.90;1.83;;;;;;;3.01;52.51;95409.44;5050170;28;20094;-76
2023/03/11 09:38:48;;;;;;;5.90;1.73;;;;;;;2.99;52.53;95406.25;5050651;28;20048;-75
2023/03/11 09:41:26;;;;;;;4.75;1.77;;;;;;;2.64;53.50;95410.25;5041684;28;20040;-75
2023/03/11 09:44:05;;;;;;;6.03;2.20;;;;;;;2.95;52.68;95406.03;5062999;28;20037;-75
2023/03/11 09:47:01;;;;;;;8.48;2.80;;;;;;;2.53;54.51;95413.09;5050241;28;20060;-75
2023/03/11 09:49:41;;;;;;;3.88;1.63;;;;;;;2.54;56.74;95408.50;5047720;28;20041;-75
2023/03/11 09:52:12;;;;;;;5.10;2.15;;;;;;;2.44;54.77;95411.34;5049826;28;20049;-77
2023/03/11 09:54:42;;;;;;;7.32;2.10;;;;;;;2.28;56.21;95416.09;5050642;28;20049;-76
2023/03/11 09:57:15;;;;;;;6.07;1.70;;;;;;;2.39;55.66;95414.09;5032086;28;20064;-75
2023/03/11 09:59:43;;;;;;;4.25;1.92;;;;;;;2.55;56.46;95418.16;5030863;28;20049;-76
2023/03/11 10:02:14;;;;;;;3.28;1.92;;;;;;;2.75;55.19;95423.25;5069542;28;20062;-75
2023/03/11 10:04:45;;;;;;;3.90;1.67;;;;;;;3.00;55.36;95429.38;5070092;28;20348;-75
2023/03/11 10:07:20;;;;;;;4.63;2.50;;;;;;;2.54;55.89;95432.69;5066731;28;20045;-76
2023/03/11 10:09:50;;;;;;;5.00;1.75;;;;;;;2.53;55.64;95441.84;5030264;28;20053;-75
2023/03/11 10:12:33;;;;;;;6.93;2.15;;;;;;;2.57;55.82;95442.88;5029143;28;20053;-75
2023/03/11 10:15:17;;;;;;;7.88;1.80;;;;;;;2.15;56.48;95436.41;5030193;28;20041;-75
2023/03/11 10:17:57;;;;;;;3.92;1.67;;;;;;;2.38;56.17;95433.97;5030750;28;20049;-76
2023/03/11 10:20:30;;;;;;;8.02;2.53;;;;;;;2.25;56.47;95441.66;5040738;28;20489;-75
2023/03/11 10:23:09;;;;;;;5.63;2.10;;;;;;;2.91;55.37;95452.63;5029995;28;20057;-75
2023/03/11 10:25:49;;;;;;;4.90;1.80;;;;;;;3.16;55.55;95444.16;5029873;28;20045;-75
2023/03/11 10:28:18;;;;;;;9.65;2.85;;;;;;;3.26;54.88;95444.00;5029425;28;20045;-76
2023/03/11 10:30:47;;;;;;;8.20;2.40;;;;;;;3.95;52.14;95443.38;5048105;28;20044;-75
2023/03/11 10:33:21;;;;;;;8.27;2.78;;;;;;;4.12;52.29;95448.97;5068873;28;20047;-76
2023/03/11 10:35:50;;;;;;;;;;;;;;;3.65;52.69;95442.81;5055084;28;20053;-75
2023/03/11 10:38:22;;;;;;;7.95;2.50;;;;;;;2.91;55.15;95452.63;5029473;28;19921;-77
2023/03/11 10:40:51;;;;;;;10.70;2.72;;;;;;;2.53;56.34;95463.34;5062464;28;20037;-76
2023/03/11 10:43:25;;;;;;;10.60;2.72;;;;;;;2.19;55.71;95460.78;5049321;28;20110;-74
2023/03/11 10:45:53;;;;;;;15.75;3.03;;;;;;;2.01;56.80;95452.41;5049359;28;20064;-75
2023/03/11 10:48:21;;;;;;;9.30;2.30;;;;;;;2.69;55.87;95467.44;5049298;28;20250;-76
2023/03/11 10:50:53;;;;;;;12.63;2.75;;;;;;;3.43;56.04;95461.50;5049773;28;20053;-75
2023/03/11 10:53:21;;;;;;;8.73;2.13;;;;;;;3.38;55.01;95454.31;5049124;28;20095;-75
2023/03/11 10:55:50;;;;;;;12.70;3.08;;;;;;;3.02;56.81;95462.13;5049626;28;20389;-75
2023/03/11 10:58:18;;;;;;;6.90;2.22;;;;;;;2.49;58.08;95463.13;5048859;28;20041;-75
2023/03/11 11:00:45;;;;;;;8.82;2.53;;;;;;;2.17;57.09;95466.47;5058417;28;20138;-75
2023/03/11 11:03:21;;;;;;;8.43;2.33;;;;;;;2.18;57.25;95470.75;5059517;28;20113;-76
2023/03/11 11:05:58;;;;;;;12.27;3.45;;;;;;;2.32;56.46;95468.97;5029407;28;20045;-75
2023/03/11 11:08:26;;;;;;;7.15;1.83;;;;;;;2.54;56.45;95464.94;5028922;28;20077;-75
2023/03/11 11:10:54;;;;;;;10.55;2.78;;;;;;;3.22;57.23;95461.81;5028962;28;20038;-75
2023/03/11 11:13:23;;;;;;;8.95;2.67;;;;;;;3.42;55.16;95468.00;5028906;28;20049;-75
2023/03/11 11:15:56;;;;;;;15.02;2.90;;;;;;;3.19;54.66;95469.72;5029344;28;20459;-75
2023/03/11 11:18:26;;;;;;;8.55;2.47;;;;;;;2.70;56.29;95469.03;5044950;28;20044;-74
2023/03/11 11:21:02;;;;;;;9.95;2.38;;;;;;;2.57;55.26;95464.38;5049524;28;20045;-75
2023/03/11 11:23:38;;;;;;;9.95;2.28;;;;;;;2.73;56.10;95468.47;5049648;28;20131;-75
2023/03/11 11:26:07;;;;;;;10.18;2.83;;;;;;;2.90;55.66;95475.22;5052647;28;20500;-75
2023/03/11 11:28:34;;;;;;;10.90;2.65;;;;;;;3.09;56.11;95470.66;5053237;28;20163;-75
2023/03/11 11:31:02;;;;;;;9.55;2.50;;;;;;;2.97;55.58;95472.97;5059578;28;20041;-75
2023/03/11 11:33:34;;;;;;;9.57;2.25;;;;;;;2.83;54.89;95473.69;5049751;28;20052;-75
2023/03/11 11:36:03;;;;;;;17.15;3.50;;;;;;;2.87;54.58;95463.97;5052687;28;20567;-76
2023/03/11 11:38:33;;;;;;;11.52;2.83;;;;;;;3.07;54.34;95472.81;5053007;28;20068;-75